Time;durP1;ratioP1;P1;durP2;ratioP2;P2;SDS_P1;SDS_P2;PMS_P1;PMS_P2;Temp;Humidity;BMP_temperature;BMP_pressure;BME280_temperature;BME280_humidity;BME280_pressure;Samples;Min_cycle;Max_cycle;Signal;HPM_P1;HPM_P2
2021/07/23 04:44:18;;;;;;;19.82;13.15;;;;;;;18.35;72.47;100797.23;1673854;84;21061;-75
2021/07/23 04:46:44;;;;;;;20.12;13.05;;;;;;;18.41;72.38;100797.73;1687376;84;21921;-74
2021/07/23 04:49:10;;;;;;;19.62;12.70;;;;;;;18.44;72.31;100794.60;1682259;85;21517;-75
2021/07/23 04:51:36;;;;;;;20.62;13.60;;;;;;;18.53;72.26;100791.72;1682655;85;21065;-75
2021/07/23 04:54:02;;;;;;;22.70;14.18;;;;;;;18.67;72.14;100787.93;1682253;85;21430;-74
2021/07/23 04:56:28;;;;;;;20.75;13.85;;;;;;;18.77;72.07;100796.41;1682386;85;21063;-74
2021/07/23 04:58:54;;;;;;;18.35;12.60;;;;;;;18.90;71.97;100801.75;1682619;85;21072;-74
2021/07/23 05:01:20;;;;;;;16.23;12.60;;;;;;;19.05;71.89;100796.92;1682494;85;21470;-74
2021/07/23 05:03:46;;;;;;;21.10;12.60;;;;;;;19.16;71.74;100796.77;1682614;85;21497;-74
2021/07/23 05:06:12;;;;;;;19.40;13.38;;;;;;;19.30;71.57;100803.75;1682423;85;21516;-74
2021/07/23 05:08:38;;;;;;;21.57;13.98;;;;;;;19.44;71.41;100800.79;1682368;85;21039;-74
2021/07/23 05:11:07;;;;;;;18.85;13.90;;;;;;;19.48;71.17;100799.00;1682807;85;21066;-74
2021/07/23 05:13:35;;;;;;;24.27;13.18;;;;;;;19.51;71.00;100793.14;1682664;85;21021;-75
2021/07/23 05:16:01;;;;;;;18.40;12.93;;;;;;;19.62;70.81;100792.45;1682866;85;21032;-75
2021/07/23 05:18:27;;;;;;;18.98;13.03;;;;;;;19.69;70.69;100793.23;1682857;85;21496;-74
2021/07/23 05:20:53;;;;;;;16.57;12.53;;;;;;;19.73;70.50;100790.39;1683045;85;21052;-75
2021/07/23 05:23:20;;;;;;;17.30;12.15;;;;;;;19.71;70.35;100791.12;1682745;85;21153;-75
2021/07/23 05:25:46;;;;;;;18.23;12.90;;;;;;;19.67;70.21;100793.44;1682895;85;21061;-75
2021/07/23 05:28:12;;;;;;;19.52;12.50;;;;;;;19.69;70.06;100794.58;1683085;85;21517;-75
2021/07/23 05:30:38;;;;;;;18.98;12.30;;;;;;;19.67;69.95;100795.30;1682955;85;21051;-75
2021/07/23 05:33:04;;;;;;;18.05;13.45;;;;;;;19.71;69.86;100793.82;1682915;85;21073;-75
2021/07/23 05:35:30;;;;;;;16.75;12.30;;;;;;;19.77;69.70;100795.67;1682961;85;21214;-74
2021/07/23 05:37:57;;;;;;;16.93;13.08;;;;;;;19.82;69.55;100791.24;1682498;85;37536;-75
2021/07/23 05:40:23;;;;;;;17.90;12.43;;;;;;;19.89;69.41;100793.89;1682931;85;21017;-74
2021/07/23 05:42:51;;;;;;;19.92;13.03;;;;;;;19.88;69.22;100793.06;1683158;85;21029;-75
2021/07/23 05:45:17;;;;;;;19.98;12.65;;;;;;;19.89;69.15;100791.19;1681908;84;21518;-75
2021/07/23 05:47:43;;;;;;;19.15;13.38;;;;;;;19.94;69.06;100787.30;1675410;85;21195;-75
2021/07/23 05:50:10;;;;;;;19.92;11.73;;;;;;;19.99;68.94;100791.52;1675526;85;21005;-75
2021/07/23 05:52:37;;;;;;;17.45;12.47;;;;;;;20.02;68.83;100787.00;1674578;85;21025;-74
2021/07/23 05:55:03;;;;;;;22.20;12.35;;;;;;;20.11;68.72;100785.69;1674868;84;21002;-74
2021/07/23 05:57:30;;;;;;;18.12;12.78;;;;;;;20.25;68.56;100787.22;1674922;85;21061;-75
2021/07/23 05:59:56;;;;;;;15.90;12.55;;;;;;;20.37;68.41;100784.09;1675020;84;21166;-75
2021/07/23 06:02:22;;;;;;;19.37;13.20;;;;;;;20.49;68.17;100784.70;1674937;85;21514;-75
2021/07/23 06:04:48;;;;;;;24.55;12.82;;;;;;;20.60;67.97;100781.24;1675125;85;21032;-75
2021/07/23 06:07:14;;;;;;;19.12;12.35;;;;;;;20.72;67.75;100778.09;1674630;84;21009;-74
2021/07/23 06:09:41;;;;;;;22.35;12.25;;;;;;;20.82;67.52;100781.92;1674951;85;21108;-75
2021/07/23 06:12:07;;;;;;;18.27;12.45;;;;;;;20.92;67.35;100784.92;1674898;85;21532;-75
2021/07/23 06:14:34;;;;;;;20.00;12.78;;;;;;;21.08;67.10;100786.16;1674940;85;21469;-75
2021/07/23 06:17:01;;;;;;;20.02;11.83;;;;;;;21.14;66.81;100774.97;1674859;84;21053;-75
2021/07/23 06:19:27;;;;;;;16.40;11.95;;;;;;;21.17;66.54;100782.12;1674871;84;21473;-75
2021/07/23 06:21:53;;;;;;;27.02;13.35;;;;;;;21.22;66.36;100783.59;1675245;84;21025;-74
2021/07/23 06:24:19;;;;;;;18.73;12.45;;;;;;;21.26;66.08;100787.51;1674532;84;21871;-75
2021/07/23 06:26:45;;;;;;;22.27;12.70;;;;;;;21.27;65.90;100788.34;1675097;85;21084;-74
2021/07/23 06:29:11;;;;;;;15.75;11.05;;;;;;;21.26;65.68;100788.87;1675113;84;20993;-75
2021/07/23 06:31:37;;;;;;;28.27;15.75;;;;;;;21.23;65.47;100790.69;1674881;85;21020;-75
2021/07/23 06:34:03;;;;;;;23.65;12.90;;;;;;;21.32;65.29;100785.22;1674397;84;21021;-75
2021/07/23 06:36:32;;;;;;;19.30;12.03;;;;;;;21.40;65.05;100793.57;1674411;85;21543;-75
2021/07/23 06:38:58;;;;;;;17.62;13.48;;;;;;;21.43;64.87;100791.22;1672849;85;20909;-75
2021/07/23 06:41:24;;;;;;;15.58;11.57;;;;;;;21.62;64.60;100789.80;1667377;85;21024;-75
2021/07/23 06:43:50;;;;;;;26.65;11.33;;;;;;;21.76;64.40;100791.25;1672911;85;21077;-75
2021/07/23 06:46:16;;;;;;;19.10;12.63;;;;;;;21.93;64.15;100791.41;1677600;85;21033;-75
2021/07/23 06:48:42;;;;;;;21.80;11.80;;;;;;;22.09;63.90;100788.85;1684288;85;21609;-75
2021/07/23 06:51:08;;;;;;;12.88;11.25;;;;;;;22.26;63.52;100791.16;1682484;85;21000;-75
2021/07/23 06:53:34;;;;;;;17.10;11.73;;;;;;;22.40;63.27;100780.33;1682256;85;20977;-75
2021/07/23 06:56:03;;;;;;;17.32;12.60;;;;;;;22.50;63.03;100782.97;1681810;85;21024;-75
2021/07/23 06:58:29;;;;;;;17.95;12.47;;;;;;;22.63;62.73;100786.78;1681950;85;21032;-75
2021/07/23 07:00:55;;;;;;;14.33;10.88;;;;;;;22.80;62.49;100784.99;1683777;83;21824;-75
2021/07/23 07:03:22;;;;;;;15.20;11.00;;;;;;;22.88;62.17;100785.45;1670153;84;21036;-75
2021/07/23 07:05:50;;;;;;;19.37;12.47;;;;;;;22.99;61.93;100789.20;1677183;84;21083;-75
2021/07/23 07:08:18;;;;;;;16.93;12.07;;;;;;;23.13;61.70;100781.05;1664062;84;21090;-75
2021/07/23 07:10:44;;;;;;;13.10;10.45;;;;;;;23.30;61.49;100781.09;1690823;83;21492;-75
2021/07/23 07:13:10;;;;;;;16.37;11.22;;;;;;;23.50;61.28;100782.05;1687853;84;22999;-75
2021/07/23 07:15:36;;;;;;;14.45;11.78;;;;;;;23.59;60.89;100780.55;1674530;84;20949;-75
2021/07/23 07:18:02;;;;;;;13.68;11.75;;;;;;;23.59;60.61;100777.30;1675342;84;20917;-75
2021/07/23 07:20:31;;;;;;;18.82;10.68;;;;;;;23.84;60.42;100779.63;1679465;84;21460;-75
2021/07/23 07:22:57;;;;;;;15.93;11.33;;;;;;;24.08;60.08;100774.81;1668349;84;21020;-75
2021/07/23 07:25:23;;;;;;;14.00;11.30;;;;;;;24.16;59.59;100775.27;1679630;83;22726;-75
2021/07/23 07:27:49;;;;;;;24.10;12.55;;;;;;;24.50;59.32;100782.00;1698906;83;21055;-75
2021/07/23 07:30:16;;;;;;;19.07;10.38;;;;;;;24.79;58.96;100779.39;1678816;85;21079;-75
2021/07/23 07:32:42;;;;;;;15.32;10.13;;;;;;;24.93;58.51;100775.23;1678217;83;20909;-75
2021/07/23 07:35:09;;;;;;;15.95;10.35;;;;;;;24.86;58.15;100778.69;1695958;83;21489;-75
2021/07/23 07:37:35;;;;;;;16.75;10.63;;;;;;;24.94;57.88;100781.52;1685410;83;21941;-75
2021/07/23 07:40:01;;;;;;;15.18;10.40;;;;;;;25.18;57.59;100778.79;1689797;83;21020;-75
2021/07/23 07:42:30;;;;;;;12.10;9.80;;;;;;;25.17;57.12;100780.69;1677316;83;21036;-76
2021/07/23 07:44:55;;;;;;;22.00;11.57;;;;;;;25.28;56.83;100776.16;1670044;85;21003;-75
2021/07/23 07:47:21;;;;;;;13.25;8.95;;;;;;;25.35;56.33;100776.78;1673835;84;21044;-75
2021/07/23 07:49:47;;;;;;;19.45;9.23;;;;;;;25.42;55.89;100776.56;1673657;85;21820;-75
2021/07/23 07:52:13;;;;;;;12.63;9.15;;;;;;;25.59;55.51;100780.03;1663292;84;21614;-75
2021/07/23 07:54:39;;;;;;;13.03;9.53;;;;;;;25.68;54.97;100778.49;1676637;83;20925;-76
2021/07/23 07:57:09;;;;;;;13.32;9.73;;;;;;;25.90;54.68;100773.73;1644309;85;21385;-76
2021/07/23 07:59:37;;;;;;;26.50;10.50;;;;;;;26.02;54.05;100776.30;1645061;86;21081;-75
2021/07/23 08:02:07;;;;;;;12.85;9.55;;;;;;;26.01;53.72;100779.56;1628009;88;22026;-76
2021/07/23 08:04:33;;;;;;;15.68;10.43;;;;;;;25.70;53.14;100774.41;1626642;88;20982;-75
2021/07/23 08:07:00;;;;;;;12.53;10.03;;;;;;;25.53;53.09;100776.45;1627334;88;21147;-75
2021/07/23 08:09:27;;;;;;;13.83;9.98;;;;;;;25.49;52.82;100777.18;1636421;86;21627;-76
2021/07/23 08:11:54;;;;;;;12.95;9.53;;;;;;;25.49;52.58;100777.18;1640205;86;21066;-75
2021/07/23 08:14:20;;;;;;;12.70;8.90;;;;;;;25.45;52.32;100770.58;1628509;88;21840;-76
2021/07/23 08:16:47;;;;;;;13.40;9.13;;;;;;;25.54;52.11;100775.91;1631533;86;20964;-75
2021/07/23 08:19:13;;;;;;;16.87;9.90;;;;;;;25.50;51.77;100770.11;1640690;86;21533;-75
2021/07/23 08:21:39;;;;;;;14.25;10.00;;;;;;;25.37;51.65;100772.44;1609761;88;21289;-75
2021/07/23 08:24:05;;;;;;;15.05;9.15;;;;;;;25.56;51.64;100773.19;1628887;87;21044;-75
2021/07/23 08:26:31;;;;;;;12.47;9.98;;;;;;;25.90;51.36;100777.02;1627836;88;21618;-75
2021/07/23 08:28:57;;;;;;;14.43;9.68;;;;;;;26.14;51.18;100777.73;1626707;88;21070;-76
2021/07/23 08:31:23;;;;;;;14.75;10.68;;;;;;;26.31;50.99;100768.88;1631159;87;21526;-76
2021/07/23 08:33:49;;;;;;;11.65;9.23;;;;;;;26.47;50.75;100770.31;1631547;87;21047;-75
2021/07/23 08:36:15;;;;;;;14.00;9.75;;;;;;;26.46;50.57;100769.48;1631803;87;21071;-75
2021/07/23 08:38:41;;;;;;;13.88;9.88;;;;;;;26.36;50.35;100763.97;1632009;86;21784;-76
2021/07/23 08:41:10;;;;;;;15.28;9.60;;;;;;;26.38;50.29;100767.81;1631593;87;21462;-75
2021/07/23 08:43:37;;;;;;;12.37;9.98;;;;;;;26.38;50.08;100759.61;1610484;88;20962;-76
2021/07/23 08:46:03;;;;;;;14.98;10.78;;;;;;;26.32;49.86;100761.47;1655040;85;21611;-75
2021/07/23 08:48:29;;;;;;;10.60;9.38;;;;;;;26.25;49.80;100763.08;1673637;84;21387;-75
2021/07/23 08:50:55;;;;;;;12.75;10.10;;;;;;;26.14;49.54;100761.33;1675822;84;21782;-75
2021/07/23 08:53:21;;;;;;;16.05;10.28;;;;;;;26.05;49.47;100758.83;1679664;84;21016;-76
2021/07/23 08:55:47;;;;;;;16.75;10.03;;;;;;;25.98;49.33;100759.59;1676275;84;21397;-75
2021/07/23 08:58:15;;;;;;;14.68;9.53;;;;;;;25.90;49.24;100761.98;1673974;85;21028;-75
2021/07/23 09:00:41;;;;;;;20.35;17.35;;;;;;;25.96;49.18;100760.95;1674288;85;21072;-74
2021/07/23 09:03:11;;;;;;;15.00;10.53;;;;;;;26.15;49.00;100762.16;1673702;85;22588;-75
2021/07/23 09:05:41;;;;;;;11.45;9.40;;;;;;;26.25;48.76;100760.34;1634831;87;21616;-76
2021/07/23 09:08:19;;;;;;;12.37;9.73;;;;;;;26.35;48.70;100761.52;1640931;86;21045;-76
2021/07/23 09:10:45;;;;;;;18.27;12.10;;;;;;;26.31;48.39;100754.38;1651997;85;20954;-76
2021/07/23 09:13:23;;;;;;;13.85;9.85;;;;;;;26.24;48.28;100757.35;1656169;85;21443;-76
2021/07/23 09:15:50;;;;;;;13.25;10.53;;;;;;;26.19;48.20;100755.94;1631606;87;21849;-76
2021/07/23 09:18:33;;;;;;;13.83;9.50;;;;;;;26.33;48.12;100753.02;1644349;87;21005;-75
2021/07/23 09:21:05;;;;;;;14.20;10.75;;;;;;;26.23;47.99;100759.80;1642622;85;21041;-76
2021/07/23 09:23:39;;;;;;;14.43;9.88;;;;;;;26.14;48.13;100753.13;1646999;87;21088;-76
2021/07/23 09:26:14;;;;;;;14.43;9.98;;;;;;;26.32;48.22;100754.09;1679707;85;20893;-76
2021/07/23 09:28:45;;;;;;;14.13;10.93;;;;;;;26.53;47.94;100750.13;1645237;87;22631;-76
2021/07/23 09:31:24;;;;;;;12.82;10.05;;;;;;;26.67;47.69;100749.34;1631860;87;21024;-76
2021/07/23 09:33:55;;;;;;;11.50;10.08;;;;;;;26.65;47.36;100742.50;1642977;86;21056;-75
2021/07/23 09:36:21;;;;;;;14.10;10.25;;;;;;;26.70;47.27;100744.73;1669857;85;21022;-76
2021/07/23 09:38:48;;;;;;;13.95;10.35;;;;;;;26.73;47.03;100743.36;1665999;85;21021;-76
2021/07/23 09:41:26;;;;;;;16.07;11.63;;;;;;;26.68;46.99;100741.95;1647105;85;21878;-76
2021/07/23 09:44:08;;;;;;;16.07;10.23;;;;;;;26.67;46.91;100737.59;1663900;83;21483;-75
2021/07/23 09:46:35;;;;;;;12.85;10.75;;;;;;;26.68;46.62;100737.85;1672091;85;20956;-75
2021/07/23 09:49:22;;;;;;;14.80;10.78;;;;;;;26.79;46.47;100727.23;1637297;86;21029;-76
2021/07/23 09:51:49;;;;;;;13.62;10.78;;;;;;;26.80;46.31;100728.87;1650514;86;21495;-76
2021/07/23 09:54:15;;;;;;;14.87;11.70;;;;;;;26.87;46.24;100731.39;1633580;87;21917;-75
2021/07/23 09:56:41;;;;;;;16.82;12.07;;;;;;;26.96;46.10;100731.95;1633267;87;21015;-75
2021/07/23 09:59:28;;;;;;;23.90;12.35;;;;;;;27.03;45.60;100727.05;1637359;86;21060;-75
2021/07/23 10:02:03;;;;;;;15.75;11.20;;;;;;;26.71;45.22;100728.56;1645638;85;21091;-75
2021/07/23 10:04:38;;;;;;;12.28;10.88;;;;;;;26.54;45.15;100720.28;1629774;87;20973;-75
2021/07/23 10:07:10;;;;;;;24.75;11.30;;;;;;;26.50;45.20;100716.43;1646007;86;22440;-75
2021/07/23 10:09:38;;;;;;;13.68;10.10;;;;;;;26.37;45.14;100723.77;1660264;86;21602;-75
2021/07/23 10:12:07;;;;;;;13.48;10.95;;;;;;;26.35;45.32;100725.95;1655263;86;21042;-76
2021/07/23 10:14:35;;;;;;;14.40;10.93;;;;;;;27.14;45.11;100712.83;1660647;86;21536;-76
2021/07/23 10:17:03;;;;;;;15.23;11.57;;;;;;;27.14;45.11;100712.83;1637587;86;20956;-76
2021/07/23 10:19:29;;;;;;;16.40;12.03;;;;;;;27.28;44.89;100720.25;1650187;85;21777;-76
2021/07/23 10:21:56;;;;;;;12.55;10.65;;;;;;;27.28;44.73;100714.77;1636015;86;20927;-76
2021/07/23 10:24:22;;;;;;;12.73;10.28;;;;;;;27.22;44.65;100716.41;1642222;86;21655;-75
2021/07/23 10:26:49;;;;;;;13.30;11.50;;;;;;;26.95;44.11;100719.92;1614026;87;21517;-76
2021/07/23 10:29:15;;;;;;;15.68;11.88;;;;;;;26.67;44.16;100712.97;1611528;86;21053;-76
2021/07/23 10:31:41;;;;;;;14.65;12.20;;;;;;;26.67;44.05;100715.70;1586825;86;21923;-75
2021/07/23 10:34:09;;;;;;;16.35;11.10;;;;;;;26.65;43.96;100709.66;1635750;85;21516;-75
2021/07/23 10:36:38;;;;;;;15.18;10.93;;;;;;;26.63;44.02;100709.12;1639860;86;21079;-77
2021/07/23 10:39:10;;;;;;;17.00;11.80;;;;;;;26.68;44.03;100709.12;1661809;85;21024;-75
2021/07/23 10:41:38;;;;;;;12.90;10.53;;;;;;;26.65;44.04;100708.30;1632309;86;21101;-76
2021/07/23 10:44:07;;;;;;;16.30;10.48;;;;;;;26.47;44.25;100707.39;1645268;85;21877;-76
2021/07/23 10:46:54;;;;;;;16.25;10.20;;;;;;;26.51;44.44;100707.14;1641266;86;21039;-76
2021/07/23 10:49:34;;;;;;;14.43;10.13;;;;;;;26.44;44.64;100702.46;1687224;84;21025;-76
2021/07/23 10:52:02;;;;;;;15.38;11.73;;;;;;;26.37;44.82;100705.44;1675967;84;21092;-75
2021/07/23 10:54:32;;;;;;;16.57;11.53;;;;;;;26.36;44.92;100700.23;1666576;86;21096;-76
2021/07/23 10:57:04;;;;;;;13.85;11.53;;;;;;;26.24;44.93;100702.66;1666965;85;21722;-76
2021/07/23 10:59:48;;;;;;;15.90;11.05;;;;;;;26.15;44.92;100702.83;1685603;84;20993;-75
2021/07/23 11:02:21;;;;;;;15.75;11.05;;;;;;;26.11;45.04;100699.52;1695111;84;20994;-75
2021/07/23 11:04:47;;;;;;;16.00;10.50;;;;;;;25.96;45.03;100698.91;1682853;84;21057;-76
2021/07/23 11:07:13;;;;;;;15.85;10.35;;;;;;;25.85;45.18;100701.30;1668559;84;21494;-76
2021/07/23 11:09:39;;;;;;;18.77;11.68;;;;;;;25.81;45.31;100693.34;1678452;84;22544;-76
2021/07/23 11:12:25;;;;;;;19.05;11.57;;;;;;;25.75;45.32;100699.86;1665417;84;21522;-78
2021/07/23 11:15:02;;;;;;;17.02;12.03;;;;;;;25.79;45.40;100700.98;1665442;86;20959;-78
2021/07/23 11:17:28;;;;;;;14.00;10.53;;;;;;;25.81;45.44;100696.07;1654492;85;21064;-78
2021/07/23 11:19:59;;;;;;;14.07;10.68;;;;;;;25.75;45.39;100687.56;1665260;86;21025;-77
2021/07/23 11:22:28;;;;;;;14.28;10.95;;;;;;;25.65;45.32;100691.59;1627254;86;22890;-77
2021/07/23 11:25:00;;;;;;;17.07;12.00;;;;;;;25.60;45.40;100688.27;1671992;85;21024;-77
2021/07/23 11:27:28;;;;;;;18.25;12.53;;;;;;;25.56;45.33;100685.78;1667525;85;21008;-77
2021/07/23 11:29:55;;;;;;;14.50;11.78;;;;;;;25.54;45.35;100688.50;1663218;85;21050;-77
2021/07/23 11:32:21;;;;;;;12.93;11.38;;;;;;;25.56;45.38;100680.85;1666691;86;21038;-77
2021/07/23 11:34:49;;;;;;;16.48;12.25;;;;;;;25.58;45.39;100677.33;1661614;86;22495;-77
2021/07/23 11:37:25;;;;;;;13.30;11.40;;;;;;;25.63;45.49;100678.72;1649814;84;20978;-78
2021/07/23 11:40:00;;;;;;;19.37;11.38;;;;;;;25.71;45.48;100678.23;1683253;84;21418;-78
2021/07/23 11:42:29;;;;;;;16.23;11.50;;;;;;;25.81;45.50;100676.40;1639416;87;21037;-78
2021/07/23 11:44:58;;;;;;;14.10;10.28;;;;;;;26.14;45.36;100667.00;1638610;87;27498;-77
2021/07/23 11:47:29;;;;;;;14.20;10.75;;;;;;;26.23;44.98;100662.72;1642431;85;21714;-78
2021/07/23 11:50:00;;;;;;;12.60;10.53;;;;;;;26.51;44.86;100667.47;1653930;86;21639;-77
2021/07/23 11:52:27;;;;;;;15.25;10.48;;;;;;;26.68;44.60;100658.49;1641302;86;21153;-77
2021/07/23 11:55:00;;;;;;;13.40;10.43;;;;;;;26.50;44.54;100663.08;1661427;86;21020;-77
2021/07/23 11:57:28;;;;;;;15.78;11.30;;;;;;;26.52;44.72;100663.66;1661475;85;21015;-78
2021/07/23 11:59:55;;;;;;;16.90;12.05;;;;;;;26.74;44.72;100656.06;1677339;84;21907;-78
2021/07/23 12:02:27;;;;;;;20.00;12.78;;;;;;;26.67;44.57;100653.56;1677659;84;21030;-78
2021/07/23 12:05:09;;;;;;;15.88;11.60;;;;;;;26.52;44.63;100655.45;1659881;85;21019;-77
2021/07/23 12:07:36;;;;;;;16.65;10.93;;;;;;;26.51;44.49;100659.27;1634533;87;21003;-76
2021/07/23 12:10:11;;;;;;;13.98;10.25;;;;;;;26.52;44.41;100651.34;1662012;84;21485;-77
2021/07/23 12:12:37;;;;;;;14.20;10.90;;;;;;;26.51;44.37;100659.27;1696293;83;21775;-78
2021/07/23 12:15:11;;;;;;;12.07;10.00;;;;;;;26.43;44.35;100651.57;1706110;83;20936;-77
2021/07/23 12:17:44;;;;;;;13.18;10.45;;;;;;;26.46;44.44;100660.63;1708461;83;21087;-77
2021/07/23 12:20:12;;;;;;;13.30;10.13;;;;;;;26.53;44.34;100657.10;1706006;84;21078;-77
2021/07/23 12:22:38;;;;;;;17.25;10.65;;;;;;;26.58;44.12;100650.26;1701193;84;20957;-78
2021/07/23 12:25:16;;;;;;;14.40;11.22;;;;;;;26.66;44.04;100645.64;1681974;85;22645;-78
2021/07/23 12:27:42;;;;;;;19.10;12.93;;;;;;;26.63;44.07;100647.55;1662946;85;21044;-78
2021/07/23 12:30:10;;;;;;;12.18;9.90;;;;;;;26.66;44.07;100642.36;1663045;86;21036;-77
2021/07/23 12:32:36;;;;;;;21.93;12.10;;;;;;;26.71;44.09;100646.46;1665941;85;21071;-78
2021/07/23 12:35:03;;;;;;;20.20;10.75;;;;;;;26.80;43.90;100646.22;1681600;85;21375;-77
2021/07/23 12:37:29;;;;;;;17.32;9.40;;;;;;;27.09;43.94;100642.44;1681739;85;21910;-78
2021/07/23 12:39:59;;;;;;;10.35;8.65;;;;;;;27.14;43.51;100642.45;1662368;85;20917;-77
2021/07/23 12:42:26;;;;;;;10.45;8.65;;;;;;;27.07;43.31;100643.27;1642879;87;21530;-78
2021/07/23 12:44:52;;;;;;;13.70;10.03;;;;;;;27.11;43.05;100640.27;1642323;86;21058;-78
2021/07/23 12:47:19;;;;;;;13.90;9.75;;;;;;;27.19;42.83;100639.73;1643895;87;21084;-77
2021/07/23 12:49:47;;;;;;;14.65;10.20;;;;;;;27.19;42.66;100638.91;1647262;86;22586;-77
2021/07/23 12:52:13;;;;;;;16.30;9.40;;;;;;;27.07;42.62;100638.34;1635567;86;21052;-77
2021/07/23 12:54:48;;;;;;;13.15;10.18;;;;;;;26.96;42.68;100637.50;1632074;87;21087;-77
2021/07/23 12:57:22;;;;;;;12.82;9.88;;;;;;;26.94;42.62;100641.08;1631389;87;21063;-77
2021/07/23 12:59:50;;;;;;;14.58;9.63;;;;;;;26.89;42.72;100636.95;1621014;87;21087;-78
2021/07/23 13:02:19;;;;;;;12.37;9.13;;;;;;;26.84;42.88;100635.59;1644932;87;22438;-78
2021/07/23 13:04:45;;;;;;;12.47;9.60;;;;;;;26.86;42.83;100629.28;1602845;88;21042;-77
2021/07/23 13:07:12;;;;;;;8.95;7.97;;;;;;;26.94;42.61;100631.49;1611430;87;20969;-77
2021/07/23 13:09:43;;;;;;;12.35;8.43;;;;;;;26.95;42.49;100626.27;1644835;87;21444;-77
2021/07/23 13:12:11;;;;;;;10.25;8.00;;;;;;;26.89;42.23;100625.17;1631909;87;21080;-78
2021/07/23 13:14:37;;;;;;;13.43;8.70;;;;;;;26.93;42.04;100629.02;1643307;87;21866;-77
2021/07/23 13:17:04;;;;;;;11.88;8.48;;;;;;;27.04;41.84;100629.30;1637398;86;21541;-78
2021/07/23 13:19:31;;;;;;;11.85;7.70;;;;;;;27.07;41.67;100622.73;1642755;87;21037;-78
2021/07/23 13:22:04;;;;;;;13.18;8.98;;;;;;;27.15;41.52;100620.83;1642945;87;21040;-78
2021/07/23 13:24:31;;;;;;;13.70;8.78;;;;;;;27.22;41.33;100615.90;1644621;87;21045;-78
2021/07/23 13:26:57;;;;;;;18.57;9.70;;;;;;;27.23;41.27;100617.52;1621549;87;22571;-77
2021/07/23 13:29:23;;;;;;;10.90;8.43;;;;;;;27.02;41.16;100612.34;1647490;86;21056;-78
2021/07/23 13:31:53;;;;;;;11.50;9.33;;;;;;;26.94;41.39;100611.50;1654376;86;21012;-77
2021/07/23 13:34:20;;;;;;;13.10;8.70;;;;;;;27.12;41.37;100609.05;1654322;85;21017;-77
2021/07/23 13:36:58;;;;;;;11.75;9.43;;;;;;;27.31;41.40;100610.13;1653496;86;20968;-77
2021/07/23 13:39:32;;;;;;;14.28;9.45;;;;;;;27.47;41.34;100610.98;1644226;87;21743;-77
2021/07/23 13:42:01;;;;;;;11.88;8.10;;;;;;;27.64;41.24;100603.81;1644990;86;20914;-78
2021/07/23 13:44:28;;;;;;;10.23;8.13;;;;;;;27.69;41.11;100602.45;1645108;86;21056;-77
2021/07/23 13:46:57;;;;;;;9.53;7.37;;;;;;;27.64;40.97;100599.70;1626399;87;20961;-78
2021/07/23 13:49:23;;;;;;;;;;;;;;;27.64;40.65;100603.81;1647296;86;21437;-77
2021/07/23 13:51:50;;;;;;;11.12;8.53;;;;;;;27.65;40.36;100598.61;1645217;87;21902;-78
2021/07/23 13:54:16;;;;;;;9.20;7.78;;;;;;;27.64;40.28;100596.97;1645161;86;21441;-78
2021/07/23 13:56:42;;;;;;;8.85;7.95;;;;;;;27.58;40.22;100592.60;1645145;87;21441;-77
2021/07/23 13:59:08;;;;;;;10.90;8.18;;;;;;;27.62;40.12;100596.44;1645034;87;21015;-78
2021/07/23 14:01:35;;;;;;;9.95;8.08;;;;;;;27.73;39.84;100591.17;1644908;87;21053;-77
2021/07/23 14:04:01;;;;;;;10.80;7.97;;;;;;;27.74;39.65;100580.48;1645115;87;22015;-78
2021/07/23 14:06:27;;;;;;;9.93;7.30;;;;;;;27.51;39.14;100585.22;1646755;85;20957;-78
2021/07/23 14:08:56;;;;;;;9.85;7.42;;;;;;;27.41;39.12;100582.47;1646635;86;21437;-78
2021/07/23 14:11:22;;;;;;;8.53;7.50;;;;;;;27.27;39.04;100585.75;1646522;86;21013;-78
2021/07/23 14:13:49;;;;;;;9.83;7.12;;;;;;;27.35;39.04;100587.66;1646612;87;21041;-77
2021/07/23 14:16:18;;;;;;;14.00;6.78;;;;;;;27.36;38.92;100581.09;1646671;87;21520;-77
2021/07/23 14:18:44;;;;;;;9.13;7.80;;;;;;;27.28;38.88;100586.03;1644453;86;21501;-78
2021/07/23 14:21:10;;;;;;;8.73;7.45;;;;;;;27.19;38.74;100584.12;1645151;87;21434;-77
2021/07/23 14:23:36;;;;;;;9.85;7.85;;;;;;;27.26;38.63;100585.50;1644936;87;21185;-77
2021/07/23 14:26:02;;;;;;;14.25;8.78;;;;;;;27.37;38.49;100577.27;1644562;86;21026;-77
2021/07/23 14:28:28;;;;;;;10.95;8.38;;;;;;;27.38;38.45;100572.03;1639195;87;21925;-78
2021/07/23 14:30:54;;;;;;;10.25;9.10;;;;;;;27.17;38.46;100576.17;1641918;85;21026;-77
2021/07/23 14:33:20;;;;;;;11.65;8.80;;;;;;;27.04;38.69;100573.17;1640882;85;21585;-78
2021/07/23 14:35:46;;;;;;;8.20;7.30;;;;;;;26.98;38.88;100572.91;1647105;87;21525;-78
2021/07/23 14:38:12;;;;;;;10.53;8.48;;;;;;;26.95;38.77;100577.56;1647047;86;21029;-78
2021/07/23 14:40:38;;;;;;;10.23;8.58;;;;;;;27.00;38.57;100575.64;1647470;85;21838;-78
2021/07/23 14:43:04;;;;;;;10.60;9.15;;;;;;;27.04;38.68;100568.52;1647073;86;21430;-77
2021/07/23 14:45:31;;;;;;;11.20;8.68;;;;;;;27.05;38.82;100566.06;1647224;87;21025;-77
2021/07/23 14:47:58;;;;;;;12.98;8.83;;;;;;;27.01;38.95;100563.59;1647060;87;20998;-76
2021/07/23 14:50:24;;;;;;;12.70;9.03;;;;;;;26.94;39.03;100567.70;1643181;87;21028;-76
2021/07/23 14:52:50;;;;;;;11.40;8.63;;;;;;;26.72;39.19;100567.92;1643397;87;22478;-76
2021/07/23 14:55:16;;;;;;;14.80;9.80;;;;;;;26.54;39.42;100567.07;1643257;86;21417;-76
2021/07/23 14:57:42;;;;;;;11.83;9.23;;;;;;;26.46;39.63;100566.26;1628765;87;21430;-77
2021/07/23 15:00:09;;;;;;;14.30;9.28;;;;;;;26.42;39.81;100565.15;1643517;87;21370;-78
2021/07/23 15:02:35;;;;;;;13.43;8.90;;;;;;;26.46;39.93;100567.05;1643319;86;21056;-78
2021/07/23 15:05:02;;;;;;;14.70;9.10;;;;;;;26.40;40.09;100570.05;1628188;87;22633;-76
2021/07/23 15:07:28;;;;;;;13.20;8.45;;;;;;;26.33;40.13;100563.47;1643257;87;20985;-76
2021/07/23 15:09:55;;;;;;;10.68;8.75;;;;;;;26.42;40.26;100565.15;1643617;86;21388;-76
2021/07/23 15:12:21;;;;;;;13.45;9.70;;;;;;;26.38;40.29;100561.31;1643458;87;20917;-76
2021/07/23 15:14:48;;;;;;;10.00;8.58;;;;;;;26.31;40.42;100560.20;1643543;86;21013;-76
2021/07/23 15:17:16;;;;;;;11.78;9.00;;;;;;;26.42;40.51;100561.05;1643468;86;22459;-76
2021/07/23 15:19:44;;;;;;;14.33;8.78;;;;;;;26.54;40.50;100557.50;1643407;86;21000;-76
2021/07/23 15:22:10;;;;;;;14.63;9.35;;;;;;;26.47;40.46;100555.57;1643245;87;21013;-76
2021/07/23 15:24:36;;;;;;;20.62;10.45;;;;;;;26.39;40.64;100557.48;1643364;86;21005;-76
2021/07/23 15:27:04;;;;;;;32.55;13.78;;;;;;;26.39;40.78;100556.92;1643497;87;21024;-76
2021/07/23 15:29:30;;;;;;;15.70;10.18;;;;;;;26.35;40.83;100561.85;1643498;87;22412;-76
2021/07/23 15:31:56;;;;;;;12.53;9.48;;;;;;;26.21;40.91;100556.87;1643315;86;21072;-76
2021/07/23 15:34:22;;;;;;;14.07;9.70;;;;;;;26.08;41.04;100555.98;1643275;87;21005;-76
2021/07/23 15:36:49;;;;;;;13.00;8.98;;;;;;;26.11;41.19;100555.98;1643356;87;21005;-76
2021/07/23 15:39:15;;;;;;;11.55;8.73;;;;;;;26.22;41.19;100551.69;1643515;86;21057;-76
2021/07/23 15:41:41;;;;;;;17.05;11.73;;;;;;;26.22;41.10;100560.43;1643374;86;21865;-76
2021/07/23 15:44:07;;;;;;;17.15;9.33;;;;;;;26.21;41.13;100558.23;1643403;86;21028;-76
2021/07/23 15:46:34;;;;;;;12.68;9.10;;;;;;;26.19;41.13;100554.14;1643307;86;21470;-76
2021/07/23 15:49:00;;;;;;;10.58;9.43;;;;;;;26.15;41.08;100548.89;1644603;86;20941;-79
2021/07/23 15:51:26;;;;;;;11.35;8.40;;;;;;;26.12;41.00;100546.16;1647399;85;20961;-76
2021/07/23 15:53:53;;;;;;;11.05;8.73;;;;;;;26.15;40.92;100543.42;1647382;86;23596;-76
2021/07/23 15:56:20;;;;;;;11.53;8.45;;;;;;;26.15;40.79;100546.98;1647442;86;21013;-79
2021/07/23 15:58:46;;;;;;;15.78;8.33;;;;;;;26.15;40.65;100541.52;1647403;87;20906;-79